sensor_id;sensor_type;location;lat;lon;timestamp;P1;durP1;ratioP1;P2;durP2;ratioP2
6564;SDS011;3316;44.118;27.258;2023-03-03T00:01:19;66.03;;;29.23;;
6564;SDS011;3316;44.118;27.258;2023-03-03T00:03:44;52.10;;;27.70;;
6564;SDS011;3316;44.118;27.258;2023-03-03T00:06:11;51.73;;;28.00;;
6564;SDS011;3316;44.118;27.258;2023-03-03T00:08:37;59.23;;;28.40;;
6564;SDS011;3316;44.118;27.258;2023-03-03T00:11:03;54.33;;;28.00;;
6564;SDS011;3316;44.118;27.258;2023-03-03T00:13:30;61.73;;;27.50;;
6564;SDS011;3316;44.118;27.258;2023-03-03T00:16:39;46.30;;;24.67;;
6564;SDS011;3316;44.118;27.258;2023-03-03T00:18:46;40.57;;;22.50;;
6564;SDS011;3316;44.118;27.258;2023-03-03T00:23:50;63.83;;;31.27;;
6564;SDS011;3316;44.118;27.258;2023-03-03T00:28:54;51.13;;;26.47;;
6564;SDS011;3316;44.118;27.258;2023-03-03T00:33:59;47.73;;;24.13;;
6564;SDS011;3316;44.118;27.258;2023-03-03T00:36:41;41.60;;;22.83;;
6564;SDS011;3316;44.118;27.258;2023-03-03T00:39:26;43.07;;;22.90;;
6564;SDS011;3316;44.118;27.258;2023-03-03T00:41:55;39.30;;;22.57;;
6564;SDS011;3316;44.118;27.258;2023-03-03T00:47:11;36.50;;;20.90;;
6564;SDS011;3316;44.118;27.258;2023-03-03T00:49:59;39.50;;;22.13;;
6564;SDS011;3316;44.118;27.258;2023-03-03T00:52:50;44.33;;;22.50;;
6564;SDS011;3316;44.118;27.258;2023-03-03T00:55:25;40.27;;;23.57;;
6564;SDS011;3316;44.118;27.258;2023-03-03T00:57:51;40.70;;;22.00;;
6564;SDS011;3316;44.118;27.258;2023-03-03T01:00:17;38.73;;;22.47;;
6564;SDS011;3316;44.118;27.258;2023-03-03T01:02:43;40.87;;;22.97;;
6564;SDS011;3316;44.118;27.258;2023-03-03T01:05:11;42.23;;;23.63;;
6564;SDS011;3316;44.118;27.258;2023-03-03T01:07:38;44.30;;;23.10;;
6564;SDS011;3316;44.118;27.258;2023-03-03T01:10:04;39.40;;;22.40;;
6564;SDS011;3316;44.118;27.258;2023-03-03T01:12:29;40.57;;;23.07;;
6564;SDS011;3316;44.118;27.258;2023-03-03T01:14:55;43.20;;;24.97;;
6564;SDS011;3316;44.118;27.258;2023-03-03T01:17:21;42.30;;;23.70;;
6564;SDS011;3316;44.118;27.258;2023-03-03T01:19:46;44.20;;;24.10;;
6564;SDS011;3316;44.118;27.258;2023-03-03T01:22:12;40.33;;;23.63;;
6564;SDS011;3316;44.118;27.258;2023-03-03T01:24:37;44.43;;;25.60;;
6564;SDS011;3316;44.118;27.258;2023-03-03T01:27:03;51.47;;;25.27;;
6564;SDS011;3316;44.118;27.258;2023-03-03T01:29:28;49.00;;;25.00;;
6564;SDS011;3316;44.118;27.258;2023-03-03T01:31:54;45.77;;;25.77;;
6564;SDS011;3316;44.118;27.258;2023-03-03T01:34:19;44.47;;;25.67;;
6564;SDS011;3316;44.118;27.258;2023-03-03T01:36:45;50.00;;;23.83;;
6564;SDS011;3316;44.118;27.258;2023-03-03T01:39:11;47.70;;;24.60;;
6564;SDS011;3316;44.118;27.258;2023-03-03T01:41:36;38.87;;;22.03;;
6564;SDS011;3316;44.118;27.258;2023-03-03T01:44:02;41.07;;;23.83;;
6564;SDS011;3316;44.118;27.258;2023-03-03T01:48:57;46.93;;;25.80;;
6564;SDS011;3316;44.118;27.258;2023-03-03T01:51:28;39.23;;;21.03;;
6564;SDS011;3316;44.118;27.258;2023-03-03T01:53:57;39.13;;;21.80;;
6564;SDS011;3316;44.118;27.258;2023-03-03T01:56:25;45.50;;;24.70;;
6564;SDS011;3316;44.118;27.258;2023-03-03T02:01:35;31.30;;;17.57;;
6564;SDS011;3316;44.118;27.258;2023-03-03T02:04:00;26.07;;;15.67;;
6564;SDS011;3316;44.118;27.258;2023-03-03T02:06:27;26.43;;;15.70;;
6564;SDS011;3316;44.118;27.258;2023-03-03T02:11:37;29.00;;;16.93;;
6564;SDS011;3316;44.118;27.258;2023-03-03T02:14:04;25.20;;;16.37;;
6564;SDS011;3316;44.118;27.258;2023-03-03T02:16:30;32.70;;;19.07;;
6564;SDS011;3316;44.118;27.258;2023-03-03T02:18:56;34.70;;;19.83;;
6564;SDS011;3316;44.118;27.258;2023-03-03T02:21:22;35.03;;;19.83;;
6564;SDS011;3316;44.118;27.258;2023-03-03T02:26:23;43.10;;;24.47;;
6564;SDS011;3316;44.118;27.258;2023-03-03T02:28:51;41.50;;;22.03;;
6564;SDS011;3316;44.118;27.258;2023-03-03T02:31:18;38.03;;;23.53;;
6564;SDS011;3316;44.118;27.258;2023-03-03T02:33:47;40.67;;;23.90;;
6564;SDS011;3316;44.118;27.258;2023-03-03T02:36:14;39.53;;;22.67;;
6564;SDS011;3316;44.118;27.258;2023-03-03T02:44:22;33.83;;;21.30;;
6564;SDS011;3316;44.118;27.258;2023-03-03T02:46:49;35.70;;;20.43;;
6564;SDS011;3316;44.118;27.258;2023-03-03T02:49:19;36.67;;;20.20;;
6564;SDS011;3316;44.118;27.258;2023-03-03T02:51:46;38.30;;;20.63;;
6564;SDS011;3316;44.118;27.258;2023-03-03T02:54:13;34.63;;;20.23;;
6564;SDS011;3316;44.118;27.258;2023-03-03T02:56:40;35.90;;;20.70;;
6564;SDS011;3316;44.118;27.258;2023-03-03T02:59:06;37.80;;;20.90;;
6564;SDS011;3316;44.118;27.258;2023-03-03T03:01:32;82.27;;;39.33;;
6564;SDS011;3316;44.118;27.258;2023-03-03T03:04:03;80.57;;;38.07;;
6564;SDS011;3316;44.118;27.258;2023-03-03T03:06:31;73.80;;;36.60;;
6564;SDS011;3316;44.118;27.258;2023-03-03T03:08:57;82.10;;;37.77;;
6564;SDS011;3316;44.118;27.258;2023-03-03T03:11:22;111.47;;;46.13;;
6564;SDS011;3316;44.118;27.258;2023-03-03T03:13:48;97.03;;;42.33;;
6564;SDS011;3316;44.118;27.258;2023-03-03T03:16:13;110.40;;;49.80;;
6564;SDS011;3316;44.118;27.258;2023-03-03T03:18:39;84.60;;;41.80;;
6564;SDS011;3316;44.118;27.258;2023-03-03T03:21:05;64.53;;;35.83;;
6564;SDS011;3316;44.118;27.258;2023-03-03T03:23:34;56.67;;;31.00;;
6564;SDS011;3316;44.118;27.258;2023-03-03T03:26:00;41.93;;;25.13;;
6564;SDS011;3316;44.118;27.258;2023-03-03T03:28:26;46.13;;;25.20;;
6564;SDS011;3316;44.118;27.258;2023-03-03T03:30:51;39.90;;;24.00;;
6564;SDS011;3316;44.118;27.258;2023-03-03T03:33:16;39.37;;;23.07;;
6564;SDS011;3316;44.118;27.258;2023-03-03T03:35:42;43.73;;;22.73;;
6564;SDS011;3316;44.118;27.258;2023-03-03T03:38:11;39.40;;;22.43;;
6564;SDS011;3316;44.118;27.258;2023-03-03T03:40:37;37.60;;;21.93;;
6564;SDS011;3316;44.118;27.258;2023-03-03T03:43:02;44.47;;;23.70;;
6564;SDS011;3316;44.118;27.258;2023-03-03T03:45:28;44.73;;;24.47;;
6564;SDS011;3316;44.118;27.258;2023-03-03T03:47:54;38.70;;;24.33;;
6564;SDS011;3316;44.118;27.258;2023-03-03T03:50:19;42.23;;;23.73;;
6564;SDS011;3316;44.118;27.258;2023-03-03T03:52:45;41.97;;;24.47;;
6564;SDS011;3316;44.118;27.258;2023-03-03T03:55:11;44.40;;;25.17;;
6564;SDS011;3316;44.118;27.258;2023-03-03T03:57:36;44.93;;;25.47;;
6564;SDS011;3316;44.118;27.258;2023-03-03T04:00:03;47.37;;;26.63;;
6564;SDS011;3316;44.118;27.258;2023-03-03T04:02:29;41.87;;;24.27;;
6564;SDS011;3316;44.118;27.258;2023-03-03T04:04:54;45.07;;;24.87;;
6564;SDS011;3316;44.118;27.258;2023-03-03T04:07:20;47.93;;;25.33;;
6564;SDS011;3316;44.118;27.258;2023-03-03T04:09:45;39.10;;;23.47;;
6564;SDS011;3316;44.118;27.258;2023-03-03T04:12:11;43.93;;;25.33;;
6564;SDS011;3316;44.118;27.258;2023-03-03T04:14:36;44.37;;;25.40;;
6564;SDS011;3316;44.118;27.258;2023-03-03T04:17:02;49.00;;;25.73;;
6564;SDS011;3316;44.118;27.258;2023-03-03T04:19:27;43.53;;;24.23;;
6564;SDS011;3316;44.118;27.258;2023-03-03T04:21:53;44.47;;;25.97;;
6564;SDS011;3316;44.118;27.258;2023-03-03T04:24:18;49.97;;;26.30;;
6564;SDS011;3316;44.118;27.258;2023-03-03T04:26:44;56.27;;;28.37;;
6564;SDS011;3316;44.118;27.258;2023-03-03T04:29:10;54.57;;;26.63;;
6564;SDS011;3316;44.118;27.258;2023-03-03T04:31:35;51.57;;;27.10;;
6564;SDS011;3316;44.118;27.258;2023-03-03T04:34:01;47.17;;;25.87;;
6564;SDS011;3316;44.118;27.258;2023-03-03T04:36:26;51.73;;;27.07;;
6564;SDS011;3316;44.118;27.258;2023-03-03T04:38:52;48.43;;;26.93;;
6564;SDS011;3316;44.118;27.258;2023-03-03T04:41:17;47.80;;;27.63;;
6564;SDS011;3316;44.118;27.258;2023-03-03T04:43:43;46.70;;;27.23;;
6564;SDS011;3316;44.118;27.258;2023-03-03T04:46:08;48.37;;;27.00;;
6564;SDS011;3316;44.118;27.258;2023-03-03T04:48:34;51.57;;;28.07;;
6564;SDS011;3316;44.118;27.258;2023-03-03T04:50:59;48.90;;;28.00;;
6564;SDS011;3316;44.118;27.258;2023-03-03T04:53:25;49.27;;;26.53;;
6564;SDS011;3316;44.118;27.258;2023-03-03T04:55:50;45.03;;;27.03;;
6564;SDS011;3316;44.118;27.258;2023-03-03T04:58:17;60.60;;;31.23;;
6564;SDS011;3316;44.118;27.258;2023-03-03T05:00:44;56.70;;;30.10;;
6564;SDS011;3316;44.118;27.258;2023-03-03T05:03:10;50.53;;;29.80;;
6564;SDS011;3316;44.118;27.258;2023-03-03T05:05:36;62.67;;;32.20;;
6564;SDS011;3316;44.118;27.258;2023-03-03T05:08:02;55.07;;;32.77;;
6564;SDS011;3316;44.118;27.258;2023-03-03T05:10:27;52.40;;;29.63;;
6564;SDS011;3316;44.118;27.258;2023-03-03T05:12:53;60.40;;;32.37;;
6564;SDS011;3316;44.118;27.258;2023-03-03T05:15:19;58.20;;;32.90;;
6564;SDS011;3316;44.118;27.258;2023-03-03T05:17:45;56.47;;;30.63;;
6564;SDS011;3316;44.118;27.258;2023-03-03T05:20:11;57.93;;;31.80;;
6564;SDS011;3316;44.118;27.258;2023-03-03T05:22:37;58.20;;;29.97;;
6564;SDS011;3316;44.118;27.258;2023-03-03T05:25:03;52.83;;;28.07;;
6564;SDS011;3316;44.118;27.258;2023-03-03T05:27:29;55.60;;;29.77;;
6564;SDS011;3316;44.118;27.258;2023-03-03T05:29:54;42.77;;;23.27;;
6564;SDS011;3316;44.118;27.258;2023-03-03T05:32:20;46.93;;;24.97;;
6564;SDS011;3316;44.118;27.258;2023-03-03T05:34:46;39.10;;;20.97;;
6564;SDS011;3316;44.118;27.258;2023-03-03T05:37:11;39.77;;;20.40;;
6564;SDS011;3316;44.118;27.258;2023-03-03T05:39:37;31.10;;;18.17;;
6564;SDS011;3316;44.118;27.258;2023-03-03T05:42:03;35.53;;;19.43;;
6564;SDS011;3316;44.118;27.258;2023-03-03T05:44:28;35.43;;;17.77;;
6564;SDS011;3316;44.118;27.258;2023-03-03T05:46:54;35.63;;;19.70;;
6564;SDS011;3316;44.118;27.258;2023-03-03T05:49:21;32.23;;;18.10;;
6564;SDS011;3316;44.118;27.258;2023-03-03T05:51:47;31.73;;;17.17;;
6564;SDS011;3316;44.118;27.258;2023-03-03T05:54:12;32.67;;;18.17;;
6564;SDS011;3316;44.118;27.258;2023-03-03T05:56:37;35.50;;;19.37;;
6564;SDS011;3316;44.118;27.258;2023-03-03T05:59:03;32.73;;;18.63;;
6564;SDS011;3316;44.118;27.258;2023-03-03T06:01:28;36.60;;;20.03;;
6564;SDS011;3316;44.118;27.258;2023-03-03T06:03:54;41.23;;;20.37;;
6564;SDS011;3316;44.118;27.258;2023-03-03T06:06:19;39.07;;;20.30;;
6564;SDS011;3316;44.118;27.258;2023-03-03T06:08:45;36.27;;;18.10;;
6564;SDS011;3316;44.118;27.258;2023-03-03T06:11:10;38.00;;;19.70;;
6564;SDS011;3316;44.118;27.258;2023-03-03T06:13:37;31.97;;;17.50;;
6564;SDS011;3316;44.118;27.258;2023-03-03T06:16:02;33.73;;;18.53;;
6564;SDS011;3316;44.118;27.258;2023-03-03T06:18:28;36.07;;;17.80;;
6564;SDS011;3316;44.118;27.258;2023-03-03T06:20:54;45.27;;;24.60;;
6564;SDS011;3316;44.118;27.258;2023-03-03T06:23:20;55.83;;;25.67;;
6564;SDS011;3316;44.118;27.258;2023-03-03T06:25:46;48.67;;;24.87;;
6564;SDS011;3316;44.118;27.258;2023-03-03T06:28:12;41.70;;;22.03;;
6564;SDS011;3316;44.118;27.258;2023-03-03T06:30:38;48.33;;;21.63;;
6564;SDS011;3316;44.118;27.258;2023-03-03T06:33:03;42.60;;;21.63;;
6564;SDS011;3316;44.118;27.258;2023-03-03T06:35:29;42.03;;;19.63;;
6564;SDS011;3316;44.118;27.258;2023-03-03T06:37:54;39.20;;;21.00;;
6564;SDS011;3316;44.118;27.258;2023-03-03T06:40:20;39.70;;;18.20;;
6564;SDS011;3316;44.118;27.258;2023-03-03T06:42:45;39.53;;;20.37;;
6564;SDS011;3316;44.118;27.258;2023-03-03T06:45:11;40.28;;;20.23;;
6564;SDS011;3316;44.118;27.258;2023-03-03T06:47:36;32.80;;;18.13;;
6564;SDS011;3316;44.118;27.258;2023-03-03T06:50:02;36.13;;;17.13;;
6564;SDS011;3316;44.118;27.258;2023-03-03T06:52:27;31.07;;;16.90;;
6564;SDS011;3316;44.118;27.258;2023-03-03T06:54:53;32.80;;;16.50;;
6564;SDS011;3316;44.118;27.258;2023-03-03T06:57:25;29.30;;;16.53;;
6564;SDS011;3316;44.118;27.258;2023-03-03T07:00:11;30.67;;;15.30;;
6564;SDS011;3316;44.118;27.258;2023-03-03T07:02:39;29.33;;;16.80;;
6564;SDS011;3316;44.118;27.258;2023-03-03T07:05:06;29.93;;;15.20;;
6564;SDS011;3316;44.118;27.258;2023-03-03T07:07:37;32.07;;;17.03;;
6564;SDS011;3316;44.118;27.258;2023-03-03T07:10:05;30.73;;;16.93;;
6564;SDS011;3316;44.118;27.258;2023-03-03T07:12:37;32.20;;;16.90;;
6564;SDS011;3316;44.118;27.258;2023-03-03T07:15:13;27.17;;;14.63;;
6564;SDS011;3316;44.118;27.258;2023-03-03T07:17:48;21.97;;;13.13;;
6564;SDS011;3316;44.118;27.258;2023-03-03T07:20:19;25.70;;;13.53;;
6564;SDS011;3316;44.118;27.258;2023-03-03T07:23:15;20.57;;;12.47;;
6564;SDS011;3316;44.118;27.258;2023-03-03T07:26:07;20.97;;;12.23;;
6564;SDS011;3316;44.118;27.258;2023-03-03T07:28:39;26.63;;;13.07;;
6564;SDS011;3316;44.118;27.258;2023-03-03T07:31:15;33.80;;;16.40;;
6564;SDS011;3316;44.118;27.258;2023-03-03T07:33:50;27.33;;;15.83;;
6564;SDS011;3316;44.118;27.258;2023-03-03T07:36:34;34.43;;;17.77;;
6564;SDS011;3316;44.118;27.258;2023-03-03T07:39:20;27.77;;;17.53;;
6564;SDS011;3316;44.118;27.258;2023-03-03T07:41:57;33.83;;;17.40;;
6564;SDS011;3316;44.118;27.258;2023-03-03T07:44:38;30.67;;;15.83;;
6564;SDS011;3316;44.118;27.258;2023-03-03T07:47:46;25.33;;;14.90;;
6564;SDS011;3316;44.118;27.258;2023-03-03T07:50:00;23.53;;;13.27;;
6564;SDS011;3316;44.118;27.258;2023-03-03T07:52:39;28.10;;;15.63;;
6564;SDS011;3316;44.118;27.258;2023-03-03T07:58:22;23.67;;;12.90;;
6564;SDS011;3316;44.118;27.258;2023-03-03T08:03:45;25.60;;;13.53;;
6564;SDS011;3316;44.118;27.258;2023-03-03T08:09:01;25.53;;;13.53;;
6564;SDS011;3316;44.118;27.258;2023-03-03T08:11:50;28.83;;;15.97;;
6564;SDS011;3316;44.118;27.258;2023-03-03T08:14:22;23.90;;;12.87;;
6564;SDS011;3316;44.118;27.258;2023-03-03T08:16:51;24.93;;;13.27;;
6564;SDS011;3316;44.118;27.258;2023-03-03T08:19:17;29.93;;;17.17;;
6564;SDS011;3316;44.118;27.258;2023-03-03T08:21:42;32.63;;;17.07;;
6564;SDS011;3316;44.118;27.258;2023-03-03T08:24:08;39.40;;;21.80;;
6564;SDS011;3316;44.118;27.258;2023-03-03T08:26:33;44.37;;;24.30;;
6564;SDS011;3316;44.118;27.258;2023-03-03T08:28:59;46.57;;;22.57;;
6564;SDS011;3316;44.118;27.258;2023-03-03T08:31:25;27.57;;;14.20;;
6564;SDS011;3316;44.118;27.258;2023-03-03T08:33:51;28.03;;;15.87;;
6564;SDS011;3316;44.118;27.258;2023-03-03T08:36:17;23.13;;;15.37;;
6564;SDS011;3316;44.118;27.258;2023-03-03T08:38:43;31.97;;;17.90;;
6564;SDS011;3316;44.118;27.258;2023-03-03T08:41:08;27.10;;;15.33;;
6564;SDS011;3316;44.118;27.258;2023-03-03T08:43:34;21.07;;;12.33;;
6564;SDS011;3316;44.118;27.258;2023-03-03T08:46:00;20.97;;;12.37;;
6564;SDS011;3316;44.118;27.258;2023-03-03T08:48:29;29.43;;;16.17;;
6564;SDS011;3316;44.118;27.258;2023-03-03T08:50:54;25.53;;;16.30;;
6564;SDS011;3316;44.118;27.258;2023-03-03T08:53:20;25.07;;;15.00;;
6564;SDS011;3316;44.118;27.258;2023-03-03T08:55:46;21.13;;;13.03;;
6564;SDS011;3316;44.118;27.258;2023-03-03T08:58:13;27.57;;;14.60;;
6564;SDS011;3316;44.118;27.258;2023-03-03T09:00:40;24.90;;;14.63;;
6564;SDS011;3316;44.118;27.258;2023-03-03T09:03:06;23.83;;;14.63;;
6564;SDS011;3316;44.118;27.258;2023-03-03T09:05:32;22.00;;;13.03;;
6564;SDS011;3316;44.118;27.258;2023-03-03T09:07:59;25.10;;;14.17;;
6564;SDS011;3316;44.118;27.258;2023-03-03T09:10:25;25.70;;;13.57;;
6564;SDS011;3316;44.118;27.258;2023-03-03T09:12:53;35.40;;;17.13;;
6564;SDS011;3316;44.118;27.258;2023-03-03T09:15:23;31.33;;;15.60;;
6564;SDS011;3316;44.118;27.258;2023-03-03T09:17:51;39.20;;;16.87;;
6564;SDS011;3316;44.118;27.258;2023-03-03T09:22:46;22.37;;;12.43;;
6564;SDS011;3316;44.118;27.258;2023-03-03T09:27:57;42.80;;;20.63;;
6564;SDS011;3316;44.118;27.258;2023-03-03T09:30:36;20.07;;;11.83;;
6564;SDS011;3316;44.118;27.258;2023-03-03T09:41:55;22.90;;;12.60;;
6564;SDS011;3316;44.118;27.258;2023-03-03T09:50:09;26.87;;;14.63;;
6564;SDS011;3316;44.118;27.258;2023-03-03T10:00:58;30.40;;;15.40;;
6564;SDS011;3316;44.118;27.258;2023-03-03T10:12:46;50.53;;;24.17;;
6564;SDS011;3316;44.118;27.258;2023-03-03T10:18:27;58.57;;;25.50;;
6564;SDS011;3316;44.118;27.258;2023-03-03T10:23:44;35.33;;;17.57;;
6564;SDS011;3316;44.118;27.258;2023-03-03T10:40:46;25.50;;;15.77;;
6564;SDS011;3316;44.118;27.258;2023-03-03T10:48:56;23.83;;;14.37;;
6564;SDS011;3316;44.118;27.258;2023-03-03T10:51:38;25.07;;;15.83;;
6564;SDS011;3316;44.118;27.258;2023-03-03T10:57:07;45.43;;;21.40;;
6564;SDS011;3316;44.118;27.258;2023-03-03T11:16:10;21.43;;;12.87;;
6564;SDS011;3316;44.118;27.258;2023-03-03T11:35:25;23.63;;;13.67;;
6564;SDS011;3316;44.118;27.258;2023-03-03T11:38:17;22.13;;;13.33;;
6564;SDS011;3316;44.118;27.258;2023-03-03T11:40:58;25.33;;;15.43;;
6564;SDS011;3316;44.118;27.258;2023-03-03T11:43:37;24.20;;;13.43;;
6564;SDS011;3316;44.118;27.258;2023-03-03T11:47:05;33.40;;;17.63;;
6564;SDS011;3316;44.118;27.258;2023-03-03T11:57:22;29.50;;;17.23;;
6564;SDS011;3316;44.118;27.258;2023-03-03T12:03:07;31.70;;;19.30;;
6564;SDS011;3316;44.118;27.258;2023-03-03T12:14:24;22.53;;;13.40;;
6564;SDS011;3316;44.118;27.258;2023-03-03T12:17:03;21.20;;;12.77;;
6564;SDS011;3316;44.118;27.258;2023-03-03T12:19:43;36.40;;;17.87;;
6564;SDS011;3316;44.118;27.258;2023-03-03T12:22:34;23.23;;;12.77;;
6564;SDS011;3316;44.118;27.258;2023-03-03T12:25:28;21.73;;;13.27;;
6564;SDS011;3316;44.118;27.258;2023-03-03T12:28:08;23.07;;;12.80;;
6564;SDS011;3316;44.118;27.258;2023-03-03T12:47:31;19.93;;;12.63;;
6564;SDS011;3316;44.118;27.258;2023-03-03T12:52:52;19.27;;;12.73;;
6564;SDS011;3316;44.118;27.258;2023-03-03T13:17:30;21.23;;;12.47;;
6564;SDS011;3316;44.118;27.258;2023-03-03T13:25:57;20.10;;;13.50;;
6564;SDS011;3316;44.118;27.258;2023-03-03T13:33:59;21.83;;;12.73;;
6564;SDS011;3316;44.118;27.258;2023-03-03T13:36:49;21.90;;;13.30;;
6564;SDS011;3316;44.118;27.258;2023-03-03T13:39:26;36.40;;;18.20;;
6564;SDS011;3316;44.118;27.258;2023-03-03T13:44:37;22.50;;;13.73;;
6564;SDS011;3316;44.118;27.258;2023-03-03T14:07:23;23.57;;;13.70;;
6564;SDS011;3316;44.118;27.258;2023-03-03T14:12:27;25.27;;;14.63;;
6564;SDS011;3316;44.118;27.258;2023-03-03T14:17:52;24.10;;;15.67;;
6564;SDS011;3316;44.118;27.258;2023-03-03T14:20:28;25.53;;;15.57;;
6564;SDS011;3316;44.118;27.258;2023-03-03T14:25:53;21.83;;;14.90;;
6564;SDS011;3316;44.118;27.258;2023-03-03T14:28:38;22.57;;;14.53;;
6564;SDS011;3316;44.118;27.258;2023-03-03T14:31:22;21.60;;;14.60;;
6564;SDS011;3316;44.118;27.258;2023-03-03T14:33:57;21.57;;;13.83;;
6564;SDS011;3316;44.118;27.258;2023-03-03T14:36:32;19.70;;;13.40;;
6564;SDS011;3316;44.118;27.258;2023-03-03T14:39:04;25.10;;;14.90;;
6564;SDS011;3316;44.118;27.258;2023-03-03T14:41:54;29.10;;;16.13;;
6564;SDS011;3316;44.118;27.258;2023-03-03T14:44:34;27.60;;;16.07;;
6564;SDS011;3316;44.118;27.258;2023-03-03T14:49:51;27.43;;;15.47;;
6564;SDS011;3316;44.118;27.258;2023-03-03T14:52:20;24.53;;;13.17;;
6564;SDS011;3316;44.118;27.258;2023-03-03T14:54:49;26.33;;;13.50;;
6564;SDS011;3316;44.118;27.258;2023-03-03T15:00:05;22.33;;;13.20;;
6564;SDS011;3316;44.118;27.258;2023-03-03T15:05:28;19.73;;;12.20;;
6564;SDS011;3316;44.118;27.258;2023-03-03T15:10:37;16.80;;;11.40;;
6564;SDS011;3316;44.118;27.258;2023-03-03T15:15:50;18.53;;;12.47;;
6564;SDS011;3316;44.118;27.258;2023-03-03T15:18:25;18.40;;;12.20;;
6564;SDS011;3316;44.118;27.258;2023-03-03T15:20:59;20.20;;;12.53;;
6564;SDS011;3316;44.118;27.258;2023-03-03T15:29:00;21.27;;;12.87;;
6564;SDS011;3316;44.118;27.258;2023-03-03T15:36:44;21.73;;;14.90;;
6564;SDS011;3316;44.118;27.258;2023-03-03T15:42:49;23.50;;;15.77;;
6564;SDS011;3316;44.118;27.258;2023-03-03T15:50:49;28.43;;;16.00;;
6564;SDS011;3316;44.118;27.258;2023-03-03T15:58:56;39.07;;;23.53;;
6564;SDS011;3316;44.118;27.258;2023-03-03T16:02:09;39.70;;;20.37;;
6564;SDS011;3316;44.118;27.258;2023-03-03T16:04:36;35.50;;;19.97;;
6564;SDS011;3316;44.118;27.258;2023-03-03T16:12:59;35.57;;;20.73;;
6564;SDS011;3316;44.118;27.258;2023-03-03T16:16:01;50.03;;;25.53;;
6564;SDS011;3316;44.118;27.258;2023-03-03T16:21:20;66.87;;;32.43;;
6564;SDS011;3316;44.118;27.258;2023-03-03T16:24:27;58.10;;;26.73;;
6564;SDS011;3316;44.118;27.258;2023-03-03T16:27:26;34.80;;;19.57;;
6564;SDS011;3316;44.118;27.258;2023-03-03T16:29:56;34.20;;;18.87;;
6564;SDS011;3316;44.118;27.258;2023-03-03T16:32:50;38.57;;;21.40;;
6564;SDS011;3316;44.118;27.258;2023-03-03T16:35:29;50.20;;;29.67;;
6564;SDS011;3316;44.118;27.258;2023-03-03T16:38:02;39.43;;;24.93;;
6564;SDS011;3316;44.118;27.258;2023-03-03T16:40:42;33.90;;;21.40;;
6564;SDS011;3316;44.118;27.258;2023-03-03T16:43:26;36.20;;;23.30;;
6564;SDS011;3316;44.118;27.258;2023-03-03T17:10:49;53.23;;;30.77;;
6564;SDS011;3316;44.118;27.258;2023-03-03T17:19:12;62.77;;;32.37;;
6564;SDS011;3316;44.118;27.258;2023-03-03T17:24:18;77.07;;;34.47;;
6564;SDS011;3316;44.118;27.258;2023-03-03T17:32:19;62.83;;;31.93;;
6564;SDS011;3316;44.118;27.258;2023-03-03T17:37:45;65.93;;;34.50;;
6564;SDS011;3316;44.118;27.258;2023-03-03T17:43:20;71.33;;;36.53;;
6564;SDS011;3316;44.118;27.258;2023-03-03T17:45:53;73.20;;;37.87;;
6564;SDS011;3316;44.118;27.258;2023-03-03T18:00:36;60.67;;;31.33;;
6564;SDS011;3316;44.118;27.258;2023-03-03T18:03:35;54.23;;;30.30;;
6564;SDS011;3316;44.118;27.258;2023-03-03T18:14:53;66.30;;;31.77;;
6564;SDS011;3316;44.118;27.258;2023-03-03T18:19:55;72.47;;;36.57;;
6564;SDS011;3316;44.118;27.258;2023-03-03T18:22:31;67.33;;;33.53;;
6564;SDS011;3316;44.118;27.258;2023-03-03T18:25:08;67.87;;;33.63;;
6564;SDS011;3316;44.118;27.258;2023-03-03T18:27:36;64.43;;;31.63;;
6564;SDS011;3316;44.118;27.258;2023-03-03T18:33:31;62.03;;;31.30;;
6564;SDS011;3316;44.118;27.258;2023-03-03T18:37:45;65.97;;;33.40;;
6564;SDS011;3316;44.118;27.258;2023-03-03T18:42:42;71.80;;;38.03;;
6564;SDS011;3316;44.118;27.258;2023-03-03T18:45:54;59.87;;;33.27;;
6564;SDS011;3316;44.118;27.258;2023-03-03T18:50:38;58.43;;;31.23;;
6564;SDS011;3316;44.118;27.258;2023-03-03T18:53:21;58.37;;;29.77;;
6564;SDS011;3316;44.118;27.258;2023-03-03T18:55:51;55.23;;;29.43;;
6564;SDS011;3316;44.118;27.258;2023-03-03T19:00:45;57.03;;;31.60;;
6564;SDS011;3316;44.118;27.258;2023-03-03T19:03:27;61.77;;;32.77;;
6564;SDS011;3316;44.118;27.258;2023-03-03T19:05:58;57.50;;;33.13;;
6564;SDS011;3316;44.118;27.258;2023-03-03T19:08:43;61.27;;;31.90;;
6564;SDS011;3316;44.118;27.258;2023-03-03T19:14:05;60.20;;;34.83;;
6564;SDS011;3316;44.118;27.258;2023-03-03T19:16:56;59.77;;;31.30;;
6564;SDS011;3316;44.118;27.258;2023-03-03T19:19:24;61.00;;;33.07;;
6564;SDS011;3316;44.118;27.258;2023-03-03T19:25:00;54.80;;;29.00;;
6564;SDS011;3316;44.118;27.258;2023-03-03T19:27:58;60.03;;;31.70;;
6564;SDS011;3316;44.118;27.258;2023-03-03T19:33:04;60.83;;;33.10;;
6564;SDS011;3316;44.118;27.258;2023-03-03T19:52:33;63.10;;;35.43;;
6564;SDS011;3316;44.118;27.258;2023-03-03T19:58:18;70.03;;;36.47;;
6564;SDS011;3316;44.118;27.258;2023-03-03T20:17:48;88.30;;;39.93;;
6564;SDS011;3316;44.118;27.258;2023-03-03T20:23:22;81.40;;;41.60;;
6564;SDS011;3316;44.118;27.258;2023-03-03T20:26:06;72.47;;;40.43;;
6564;SDS011;3316;44.118;27.258;2023-03-03T20:40:03;80.47;;;41.27;;
6564;SDS011;3316;44.118;27.258;2023-03-03T20:51:28;73.67;;;41.13;;
6564;SDS011;3316;44.118;27.258;2023-03-03T20:54:08;75.87;;;40.20;;
6564;SDS011;3316;44.118;27.258;2023-03-03T21:07:34;79.80;;;43.13;;
6564;SDS011;3316;44.118;27.258;2023-03-03T21:10:22;85.20;;;42.90;;
6564;SDS011;3316;44.118;27.258;2023-03-03T21:13:20;86.30;;;45.20;;
6564;SDS011;3316;44.118;27.258;2023-03-03T21:16:41;84.17;;;45.10;;
6564;SDS011;3316;44.118;27.258;2023-03-03T21:18:56;84.73;;;42.87;;
6564;SDS011;3316;44.118;27.258;2023-03-03T21:21:37;98.00;;;48.20;;
6564;SDS011;3316;44.118;27.258;2023-03-03T21:24:03;94.57;;;45.43;;
6564;SDS011;3316;44.118;27.258;2023-03-03T21:29:28;81.20;;;41.33;;
6564;SDS011;3316;44.118;27.258;2023-03-03T21:32:01;85.73;;;43.30;;
6564;SDS011;3316;44.118;27.258;2023-03-03T21:36:56;79.30;;;43.73;;
6564;SDS011;3316;44.118;27.258;2023-03-03T21:41:55;76.70;;;42.50;;
6564;SDS011;3316;44.118;27.258;2023-03-03T21:44:54;82.90;;;44.63;;
6564;SDS011;3316;44.118;27.258;2023-03-03T21:47:17;80.43;;;42.57;;
6564;SDS011;3316;44.118;27.258;2023-03-03T21:49:48;87.33;;;44.37;;
6564;SDS011;3316;44.118;27.258;2023-03-03T21:52:16;89.10;;;43.53;;
6564;SDS011;3316;44.118;27.258;2023-03-03T21:54:44;85.47;;;44.70;;
6564;SDS011;3316;44.118;27.258;2023-03-03T21:57:11;92.83;;;45.50;;
6564;SDS011;3316;44.118;27.258;2023-03-03T21:59:37;90.03;;;43.77;;
6564;SDS011;3316;44.118;27.258;2023-03-03T22:02:03;98.80;;;44.77;;
6564;SDS011;3316;44.118;27.258;2023-03-03T22:04:28;95.40;;;46.70;;
6564;SDS011;3316;44.118;27.258;2023-03-03T22:06:54;89.10;;;44.20;;
6564;SDS011;3316;44.118;27.258;2023-03-03T22:09:20;98.37;;;46.93;;
6564;SDS011;3316;44.118;27.258;2023-03-03T22:11:46;102.87;;;47.47;;
6564;SDS011;3316;44.118;27.258;2023-03-03T22:14:11;101.40;;;47.60;;
6564;SDS011;3316;44.118;27.258;2023-03-03T22:16:37;90.70;;;45.50;;
6564;SDS011;3316;44.118;27.258;2023-03-03T22:19:03;95.40;;;46.73;;
6564;SDS011;3316;44.118;27.258;2023-03-03T22:21:29;92.07;;;45.33;;
6564;SDS011;3316;44.118;27.258;2023-03-03T22:23:55;86.73;;;44.13;;
6564;SDS011;3316;44.118;27.258;2023-03-03T22:26:21;80.83;;;42.73;;
6564;SDS011;3316;44.118;27.258;2023-03-03T22:28:47;89.57;;;45.20;;
6564;SDS011;3316;44.118;27.258;2023-03-03T22:31:13;87.20;;;42.73;;